Kevin Janza

Olheiro-Chefe - NK Maribor
13 Jan 2028
Quinta-feira
Processo

Personalidade

Adaptabilidade (5) Ambição (10) Controvérsia (16) Lealdade (12) Pressão (8) Profissionalismo (16) Espírito Esportivo (10) Temperamento (4)

Perfil

Estilo de Treinamento Democrático
Licença Continental C
Determinação 7
Gestão de Pessoas 10
Motivação 12
Disciplina 6
Satisfação no Trabalho
100%
Fadiga
0%
Função Olheiro-Chefe
Salário 70.4K p/s
Contrato 14.03.2030

Desempenho

Comportamento Bom
Eficácia do Treinamento
36%
Desenvolvimento do Jogador
55%
Prevenção de Lesões
35%
Implementação Tática
20%

Eventos Recentes

Participou de uma reunião de recrutamento 7d atrás
Aniversário 7d atrás
Participou de uma reunião de recrutamento 14d atrás
Avaliou um jogador 14d atrás
Participou de uma reunião de recrutamento 21d atrás
Participou de uma reunião de recrutamento 28d atrás
Participou de uma reunião de recrutamento 35d atrás
Participou de uma reunião de recrutamento 35d atrás

Monitorando agora

84
Jogador Clube Status Habilidade Confiança Observado Última observação Último voto
Leo Rimac Koper Ativo 104 / 118 58% 1 04.01.2028 Aprovar
Ramón González Almirante Brown Ativo 119 / 114 40% 1 31.12.2027 -
Santiago Sala Güemes Ativo 123 / 112 40% 1 31.12.2027 -
Lautaro Vargas Leganés Ativo 124 / 132 40% 1 12.07.2027 -
Marquinhos Spartak Moscow Ativo 124 / 135 40% 1 12.07.2027 -
Dilan Neves Benfica Ativo 70 / 93 40% 2 21.06.2027 -
Kirill Cheburakov Rostov Ativo 84 / 89 40% 1 21.06.2027 -
Njabulo Hlongwane Binga Ativo 83 / 67 40% 1 28.05.2027 -
Dylan Cabral Arsenal Ativo 98 / 103 40% 2 25.05.2027 -
Miloš Jovičić Zabbar St. Patrick Ativo 94 / 106 40% 2 25.05.2027 -
Baba N'Diaye Chelyabinsk Ativo 75 / 86 40% 7 24.05.2027 -
Amaury Morales Pumas UNAM Ativo 129 / 118 40% 4 24.05.2027 -
Bohdan Kyrykovych Rukh Ativo 72 / 75 40% 4 22.05.2027 -
Markus Jensen Nacional Ativo 103 / 117 40% 4 18.05.2027 -
Agustín Fernández NK Zavrc Ativo 92 / 97 40% 4 16.05.2027 -
Víctor Guzmán Sporting CP Ativo 102 / 100 40% 2 14.05.2027 -
Anestis Mythou PAOK Ativo 89 / 105 40% 3 08.05.2027 -
Godbless Ayeke AS Korofina Ativo 76 / 86 40% 1 06.05.2027 -
Nicolas Verkooijen PSV Ativo 104 / 105 40% 1 27.04.2027 -
David Kalokoh Ajax Ativo 126 / 116 40% 3 15.04.2027 -
Ognjen Bondžulić Mladost Lucani Ativo 110 / 104 40% 1 12.04.2027 -
Marko Brkić NK Krka Ativo 99 / 92 40% 4 09.04.2027 -
Thomas Waddingham Portsmouth Ativo 100 / 113 40% 1 06.04.2027 -
Andraž Ruedl Koper Ativo 99 / 114 55% 1 18.01.2027 -
Matic Ilicic NK Domzale Ativo 89 / 89 40% 1 01.01.2027 -
Deano Van Rooyen Neftchi Ativo 122 / 106 40% 1 27.12.2026 -
Denzel Jubitana Neftchi Ativo 131 / 106 40% 3 23.12.2026 -
Yves Bissouma Tottenham Ativo 133 / 135 40% 2 23.12.2026 -
Christ Inao Oulaï Fiorentina Ativo 141 / 142 40% 1 21.12.2026 -
Leandro Lozano Boca Juniors Ativo 124 / 125 40% 1 18.12.2026 -
Dramane Kamagaté USM Alger Ativo 122 / 120 40% 2 17.12.2026 -
Sidiki Chérif Coventry City Ativo 117 / 125 40% 2 15.12.2026 -
Zan Oblak NK Domzale Ativo 121 / 118 40% 1 15.12.2026 -
Santiago Sosa Yung Sevilla Ativo 131 / 137 40% 1 12.12.2026 -
Matheus Silva Qarabag Ativo 126 / 129 40% 2 10.12.2026 -
Adilson Córdoba Ativo 119 / 119 40% 1 06.12.2026 -
Krešimir Radoš HNK Gorica Ativo 105 / 111 40% 1 05.12.2026 -
Yago Santiago Racing Santander Ativo 107 / 130 40% 1 05.12.2026 -
Daniel Kyerewaa Reading Ativo 114 / 110 40% 1 01.12.2026 -
Alexei Dominguez Pachuca Ativo 109 / 121 40% 1 01.12.2026 -
Romano Schmid Frosinone Ativo 146 / 145 40% 2 26.11.2026 -
Mariano Bracamonte Deportivo Riestra Ativo 123 / 119 40% 2 20.11.2026 -
Kein Sato FC Tokyo Ativo 131 / 127 40% 2 19.11.2026 -
Luka Vešner Tičić NK Celje Ativo 102 / 121 40% 1 18.11.2026 -
Jack Currie Oxford United Ativo 127 / 112 40% 2 17.11.2026 -
Andrei Cordea CFR Cluj Ativo 118 / 119 40% 1 14.11.2026 -
Franco Cristaldo Talleres Ativo 125 / 125 40% 2 13.11.2026 -
Jonás Luna Santa Clara Ativo 109 / 127 40% 2 09.11.2026 -
Denis Makarov Krylya Sovetov Ativo 109 / 118 40% 1 07.11.2026 -
Yuber Quiñónes Deportivo Pereira Ativo 120 / 123 40% 1 30.10.2026 -
Luke Molyneux Doncaster Rovers Ativo 105 / 109 40% 1 30.10.2026 -
Hassan Beja AFC Leopards Ativo 66 / 93 40% 4 27.10.2026 -
Breel Embolo Atlanta United FC Ativo 139 / 146 40% 1 27.10.2026 -
Lévy Néne FC Nordsjaelland Ativo 102 / 113 40% 1 26.10.2026 -
Jaïro Riedewald Sheffield United Ativo 132 / 116 40% 1 15.10.2026 -
Yaroslav Gladyshev Dinamo Moscow Ativo 130 / 128 40% 1 13.10.2026 -
Pedro Bicalho Qarabag Ativo 114 / 121 40% 1 13.10.2026 -
Tien Goga ND Gorica Ativo 83 / 88 40% 1 12.10.2026 -
Tomás Romero Unión de Santa Fe Ativo 91 / 105 40% 1 12.10.2026 -
Ronaldo Vásquez Sumgayit Ativo 134 / 120 40% 1 09.10.2026 -
Imran Oulad Omar Dinamo Batumi Ativo 125 / 125 40% 1 08.10.2026 -
George Earthy Reading Ativo 98 / 117 40% 1 06.10.2026 -
Leon Grgić Sturm Graz Ativo 113 / 119 40% 1 04.10.2026 Mais informações
Jakob Štrukelj NK Krsko Ativo 68 / 75 40% 1 04.10.2026 -
Vladimir Holes Slavia Prague Ativo 79 / 80 40% 1 28.09.2026 -
Kaio Eduardo Thun Ativo 116 / 99 40% 1 26.09.2026 -
Aaron Centurión Vélez Ativo 92 / 105 40% 1 26.09.2026 -
Bassey John Enyimba Ativo 89 / 91 40% 1 25.09.2026 -
Tobías Ganduglia Independiente Rivadavia Ativo 96 / 94 40% 1 22.09.2026 -
Andrey Domotsev Mashuk Ativo 73 / 82 40% 1 22.09.2026 -
Lorenzo Orzán Colón Ativo 87 / 105 40% 1 19.09.2026 -
Matty Warhurst Manchester City Ativo 90 / 91 40% 1 18.09.2026 -
Kabiru Abdullahi Barau Ativo 82 / 96 40% 1 16.09.2026 -
Diego Opazo Santiago Wanderers Ativo 88 / 94 40% 1 14.09.2026 -
Maksim Ramazanov Sumgayit Ativo 55 / 70 40% 2 12.09.2026 -
Alan Cisnero Shukura Ativo 94 / 95 40% 1 12.09.2026 -
Fletcher Holman Swindon Town Ativo 93 / 81 40% 1 09.09.2026 -
Facundo Miño Deportivo Riestra Ativo 130 / 113 40% 1 08.09.2026 -
Paulo Vitor Dinamo Batumi Ativo 100 / 123 40% 1 07.09.2026 -
Diego Villares Deportivo La Coruña Ativo 106 / 115 40% 1 07.09.2026 -
Leonel Flores Boca Juniors Ativo 101 / 100 40% 1 04.09.2026 -
Hugo Magallanes Everton Ativo 107 / 114 40% 1 02.09.2026 -
Mario García Racing Santander Ativo 135 / 113 40% 1 25.08.2026 -
Raúl De Tomás Rayo Vallecano Ativo 131 / 127 40% 1 02.08.2026 -